createdAt,value
2019-02-09T00:00:37.634Z,13.27
2019-02-09T00:03:07.968Z,13.67
2019-02-09T00:05:36.971Z,13.57
2019-02-09T00:08:08.879Z,13.13
2019-02-09T00:10:37.598Z,14.13
2019-02-09T00:13:06.418Z,14.33
2019-02-09T00:15:36.115Z,13.97
2019-02-09T00:18:08.562Z,13.17
2019-02-09T00:20:37.288Z,14.83
2019-02-09T00:23:06.850Z,14.90
2019-02-09T00:25:35.774Z,14.77
2019-02-09T00:28:05.212Z,15.10
2019-02-09T00:30:33.976Z,15.27
2019-02-09T00:33:02.713Z,14.43
2019-02-09T00:35:31.434Z,15.83
2019-02-09T00:38:00.305Z,12.97
2019-02-09T00:40:30.040Z,15.40
2019-02-09T00:42:58.772Z,13.90
2019-02-09T00:45:29.349Z,14.53
2019-02-09T00:47:58.079Z,16.77
2019-02-09T00:50:26.804Z,17.73
2019-02-09T00:52:55.589Z,14.03
2019-02-09T00:55:28.284Z,15.97
2019-02-09T00:57:57.168Z,16.27
2019-02-09T01:00:33.014Z,15.03
2019-02-09T01:03:01.839Z,14.33
2019-02-09T01:05:39.199Z,15.17
2019-02-09T01:08:08.033Z,14.17
2019-02-09T01:10:36.868Z,14.43
2019-02-09T01:13:05.936Z,14.27
2019-02-09T01:15:34.658Z,15.30
2019-02-09T01:18:03.391Z,15.10
2019-02-09T01:20:32.397Z,14.43
2019-02-09T01:23:01.827Z,14.77
2019-02-09T01:25:30.556Z,14.87
2019-02-09T01:27:59.531Z,13.70
2019-02-09T01:30:29.559Z,14.13
2019-02-09T01:32:58.484Z,13.67
2019-02-09T01:35:27.692Z,14.57
2019-02-09T01:37:56.510Z,14.20
2019-02-09T01:40:29.942Z,14.57
2019-02-09T01:42:58.729Z,15.17
2019-02-09T01:45:30.297Z,14.80
2019-02-09T01:47:59.325Z,14.80
2019-02-09T01:50:30.516Z,15.07
2019-02-09T01:52:59.425Z,14.47
2019-02-09T01:55:28.955Z,15.10
2019-02-09T01:57:58.639Z,15.63
2019-02-09T02:00:29.947Z,15.83
2019-02-09T02:02:58.878Z,15.80
2019-02-09T02:05:28.013Z,15.63
2019-02-09T02:07:56.946Z,14.80
2019-02-09T02:10:39.088Z,14.23
2019-02-09T02:13:09.721Z,14.47
2019-02-09T02:15:39.023Z,15.33
2019-02-09T02:18:08.607Z,14.10
2019-02-09T02:20:37.633Z,15.33
2019-02-09T02:23:06.651Z,15.47
2019-02-09T02:25:35.714Z,15.00
2019-02-09T02:28:04.753Z,14.77
2019-02-09T02:30:35.802Z,14.87
2019-02-09T02:33:05.443Z,14.77
2019-02-09T02:35:34.267Z,14.50
2019-02-09T02:38:02.995Z,14.80
2019-02-09T02:40:31.875Z,15.13
2019-02-09T02:43:00.612Z,15.07
2019-02-09T02:45:29.441Z,15.17
2019-02-09T02:47:58.305Z,14.90
2019-02-09T02:50:27.024Z,15.60
2019-02-09T02:52:55.748Z,14.80
2019-02-09T02:55:26.814Z,16.63
2019-02-09T02:57:55.637Z,15.57
2019-02-09T03:00:32.257Z,17.03
2019-02-09T03:03:00.793Z,16.57
2019-02-09T03:05:29.519Z,16.27
2019-02-09T03:07:58.289Z,15.57
2019-02-09T03:10:27.014Z,15.13
2019-02-09T03:12:55.740Z,16.17
2019-02-09T03:15:29.479Z,16.53
2019-02-09T03:17:58.206Z,15.97
2019-02-09T03:20:27.235Z,16.80
2019-02-09T03:22:56.228Z,16.10
2019-02-09T03:25:33.513Z,14.97
2019-02-09T03:28:02.640Z,15.10
2019-02-09T03:30:45.858Z,16.50
2019-02-09T03:33:01.817Z,35.57
2019-02-09T03:35:30.770Z,70.77
2019-02-09T03:37:59.500Z,55.07
2019-02-09T03:40:29.525Z,40.53
2019-02-09T03:42:58.328Z,25.37
2019-02-09T03:45:32.596Z,17.60
2019-02-09T03:48:02.109Z,15.97
2019-02-09T03:50:32.284Z,16.40
2019-02-09T03:53:01.720Z,27.07
2019-02-09T03:55:30.545Z,20.10
2019-02-09T03:57:59.864Z,19.23
2019-02-09T04:00:32.181Z,15.30
2019-02-09T04:03:02.770Z,16.80
2019-02-09T04:05:31.843Z,15.73
2019-02-09T04:08:00.571Z,15.33
2019-02-09T04:10:29.625Z,15.77
2019-02-09T04:12:58.756Z,15.20
2019-02-09T04:15:28.891Z,14.33
2019-02-09T04:18:00.247Z,15.07
2019-02-09T04:20:35.479Z,14.50
2019-02-09T04:23:07.591Z,14.37
2019-02-09T04:25:36.323Z,16.20
2019-02-09T04:28:05.236Z,13.40
2019-02-09T04:30:34.048Z,14.07
2019-02-09T04:33:02.767Z,15.63
2019-02-09T04:35:31.525Z,14.40
2019-02-09T04:38:00.363Z,15.37
2019-02-09T04:40:30.785Z,15.27
2019-02-09T04:42:59.948Z,15.23
2019-02-09T04:45:28.768Z,14.87
2019-02-09T04:47:57.608Z,15.00
2019-02-09T04:50:26.599Z,15.17
2019-02-09T04:52:55.328Z,17.03
2019-02-09T04:55:25.585Z,15.10
2019-02-09T04:57:54.447Z,14.57
2019-02-09T05:00:25.522Z,14.43
2019-02-09T05:02:54.243Z,15.47
2019-02-09T05:05:23.476Z,14.30
2019-02-09T05:07:52.207Z,15.13
2019-02-09T05:10:22.733Z,15.80
2019-02-09T05:12:51.616Z,26.83
2019-02-09T05:15:22.152Z,23.47
2019-02-09T05:17:51.176Z,16.27
2019-02-09T05:20:25.429Z,15.20
2019-02-09T05:22:54.727Z,14.70
2019-02-09T05:25:23.586Z,15.27
2019-02-09T05:27:52.555Z,14.73
2019-02-09T05:30:26.707Z,14.37
2019-02-09T05:32:55.834Z,14.67
2019-02-09T05:35:24.708Z,14.43
2019-02-09T05:37:53.444Z,14.20
2019-02-09T05:40:24.511Z,14.60
2019-02-09T05:42:53.681Z,14.10
2019-02-09T05:45:27.976Z,15.07
2019-02-09T05:47:56.896Z,14.50
2019-02-09T05:50:25.720Z,14.20
2019-02-09T05:52:54.439Z,13.57
2019-02-09T05:55:23.350Z,13.77
2019-02-09T05:57:52.069Z,14.80
2019-02-09T06:00:41.951Z,14.67
2019-02-09T06:03:10.671Z,15.83
2019-02-09T06:05:39.393Z,15.57
2019-02-09T06:08:08.222Z,14.53
2019-02-09T06:10:36.967Z,14.67
2019-02-09T06:13:05.696Z,14.43
2019-02-09T06:15:34.602Z,14.93
2019-02-09T06:18:03.325Z,15.30
2019-02-09T06:20:32.162Z,15.00
2019-02-09T06:23:01.137Z,15.50
2019-02-09T06:25:29.879Z,15.73
2019-02-09T06:27:58.622Z,15.13
2019-02-09T06:30:32.524Z,16.27
2019-02-09T06:33:01.254Z,15.47
2019-02-09T06:35:30.493Z,22.10
2019-02-09T06:37:59.598Z,17.83
2019-02-09T06:40:28.460Z,16.30
2019-02-09T06:42:57.304Z,17.63
2019-02-09T06:45:27.190Z,29.80
2019-02-09T06:48:15.103Z,33.67
2019-02-09T06:50:43.980Z,27.43
2019-02-09T06:53:12.709Z,23.13
2019-02-09T06:55:41.426Z,22.33
2019-02-09T06:58:10.252Z,21.70
2019-02-09T07:00:38.983Z,18.13
2019-02-09T07:03:07.813Z,16.80
2019-02-09T07:05:36.699Z,16.87
2019-02-09T07:08:06.040Z,16.33
2019-02-09T07:10:34.762Z,15.20
2019-02-09T07:13:03.723Z,16.10
2019-02-09T07:15:37.506Z,15.03
2019-02-09T07:18:07.333Z,32.90
2019-02-09T07:20:36.329Z,49.63
2019-02-09T07:23:06.668Z,53.53
2019-02-09T07:25:35.499Z,41.70
2019-02-09T07:28:05.403Z,36.43
2019-02-09T07:30:35.931Z,29.83
2019-02-09T07:33:06.652Z,23.23
2019-02-09T07:35:35.961Z,29.30
2019-02-09T07:38:04.983Z,21.60
2019-02-09T07:40:34.823Z,20.07
2019-02-09T07:43:03.717Z,16.40
2019-02-09T07:45:34.366Z,14.70
2019-02-09T07:48:03.087Z,16.13
2019-02-09T07:50:31.962Z,14.53
2019-02-09T07:53:01.215Z,17.70
2019-02-09T07:55:29.895Z,16.40
2019-02-09T07:57:58.662Z,18.00
2019-02-09T08:00:29.986Z,19.43
2019-02-09T08:02:59.109Z,18.67
2019-02-09T08:05:29.663Z,15.47
2019-02-09T08:07:58.893Z,15.43
2019-02-09T08:10:29.923Z,18.60
2019-02-09T08:12:59.595Z,14.33
2019-02-09T08:15:30.584Z,16.83
2019-02-09T08:17:59.512Z,15.40
2019-02-09T08:20:30.835Z,15.03
2019-02-09T08:23:01.704Z,15.00
2019-02-09T08:25:32.833Z,16.70
2019-02-09T08:28:02.512Z,14.47
2019-02-09T08:30:43.102Z,14.70
2019-02-09T08:33:12.001Z,15.00
2019-02-09T08:35:40.736Z,15.00
2019-02-09T08:38:10.258Z,18.10
2019-02-09T08:40:39.478Z,22.43
2019-02-09T08:43:08.217Z,16.67
2019-02-09T08:45:37.079Z,23.20
2019-02-09T08:48:07.798Z,19.10
2019-02-09T08:50:45.180Z,19.60
2019-02-09T08:53:18.859Z,16.67
2019-02-09T08:55:47.592Z,15.20
2019-02-09T08:58:16.317Z,14.37
2019-02-09T09:00:45.158Z,15.33
2019-02-09T09:03:13.882Z,15.50
2019-02-09T09:05:42.609Z,14.10
2019-02-09T09:08:11.831Z,13.97
2019-02-09T09:10:40.557Z,13.67
2019-02-09T09:13:09.296Z,15.77
2019-02-09T09:15:41.163Z,15.07
2019-02-09T09:18:10.005Z,15.07
2019-02-09T09:20:50.860Z,15.20
2019-02-09T09:23:19.611Z,14.67
2019-02-09T09:25:48.649Z,16.13
2019-02-09T09:28:17.498Z,14.97
2019-02-09T09:30:46.332Z,13.77
2019-02-09T09:33:15.065Z,13.80
2019-02-09T09:35:44.119Z,12.20
2019-02-09T09:38:12.906Z,13.77
2019-02-09T09:40:43.240Z,13.60
2019-02-09T09:43:12.200Z,13.73
2019-02-09T09:45:42.939Z,13.30
2019-02-09T09:48:14.068Z,12.33
2019-02-09T09:50:43.032Z,12.00
2019-02-09T09:53:11.755Z,12.27
2019-02-09T09:55:40.777Z,12.50
2019-02-09T09:58:09.969Z,12.03
2019-02-09T10:00:38.796Z,11.20
2019-02-09T10:03:09.274Z,12.03
2019-02-09T10:05:38.044Z,12.60
2019-02-09T10:08:07.403Z,12.63
2019-02-09T10:10:36.233Z,12.93
2019-02-09T10:13:05.915Z,13.13
2019-02-09T10:15:34.752Z,12.90
2019-02-09T10:18:03.482Z,12.57
2019-02-09T10:20:32.373Z,13.20
2019-02-09T10:23:01.195Z,13.60
2019-02-09T10:25:30.033Z,13.97
2019-02-09T10:27:59.244Z,13.63
2019-02-09T10:30:29.870Z,13.20
2019-02-09T10:32:58.596Z,15.13
2019-02-09T10:35:28.039Z,14.60
2019-02-09T10:37:56.863Z,13.20
2019-02-09T10:40:30.377Z,14.03
2019-02-09T10:42:59.549Z,12.90
2019-02-09T10:45:29.889Z,13.30
2019-02-09T10:48:00.195Z,14.10
2019-02-09T10:50:37.584Z,14.80
2019-02-09T10:53:06.518Z,14.20
2019-02-09T10:55:37.795Z,14.90
2019-02-09T10:58:06.956Z,15.53
2019-02-09T11:00:56.658Z,13.60
2019-02-09T11:03:25.563Z,13.97
2019-02-09T11:06:20.795Z,15.37
2019-02-09T11:11:59.983Z,14.00
2019-02-09T11:14:28.836Z,14.57
2019-02-09T11:16:57.583Z,14.70
2019-02-09T11:19:26.310Z,13.60
2019-02-09T11:21:55.192Z,13.27
2019-02-09T11:24:23.931Z,12.70
2019-02-09T11:26:52.667Z,12.50
2019-02-09T11:29:21.555Z,13.57
2019-02-09T11:31:50.285Z,13.77
2019-02-09T11:34:19.012Z,13.80
2019-02-09T11:36:48.113Z,13.43
2019-02-09T11:39:16.860Z,14.23
2019-02-09T11:41:45.625Z,13.63
2019-02-09T11:44:14.372Z,14.03
2019-02-09T11:46:43.125Z,13.03
2019-02-09T11:49:11.864Z,13.73
2019-02-09T11:51:40.635Z,14.03
2019-02-09T11:54:09.365Z,13.73
2019-02-09T11:56:38.097Z,14.40
2019-02-09T11:59:06.906Z,14.33
2019-02-09T12:01:36.118Z,14.23
2019-02-09T12:04:05.924Z,13.70
2019-02-09T12:06:34.780Z,13.73
2019-02-09T12:09:04.948Z,13.73
2019-02-09T12:11:33.688Z,13.33
2019-02-09T12:14:02.558Z,13.97
2019-02-09T12:16:31.285Z,14.10
2019-02-09T12:19:00.025Z,14.47
2019-02-09T12:21:28.795Z,14.27
2019-02-09T12:23:57.530Z,14.33
2019-02-09T12:26:26.276Z,14.80
2019-02-09T12:28:55.095Z,16.10
2019-02-09T12:31:23.822Z,16.03
2019-02-09T12:33:52.560Z,16.10
2019-02-09T12:36:21.438Z,14.87
2019-02-09T12:38:50.169Z,16.10
2019-02-09T12:41:18.908Z,17.27
2019-02-09T12:43:47.781Z,20.87
2019-02-09T12:46:16.512Z,17.53
2019-02-09T12:48:45.247Z,17.77
2019-02-09T12:51:14.149Z,17.67
2019-02-09T12:53:42.878Z,18.73
2019-02-09T12:56:11.605Z,16.97
2019-02-09T12:58:40.478Z,16.90
2019-02-09T13:01:09.223Z,16.43
2019-02-09T13:03:37.941Z,17.60
2019-02-09T13:06:06.845Z,18.03
2019-02-09T13:08:35.581Z,19.80
2019-02-09T13:11:04.717Z,18.53
2019-02-09T13:13:33.603Z,18.63
2019-02-09T13:16:02.328Z,18.57
2019-02-09T13:18:31.054Z,17.43
2019-02-09T13:21:00.179Z,17.83
2019-02-09T13:23:28.904Z,20.23
2019-02-09T13:25:58.335Z,19.30
2019-02-09T13:28:27.103Z,17.60
2019-02-09T13:30:55.842Z,19.73
2019-02-09T13:33:24.563Z,21.30
2019-02-09T13:35:53.373Z,20.87
2019-02-09T13:38:22.102Z,19.90
2019-02-09T13:40:50.830Z,21.13
2019-02-09T13:43:19.647Z,19.80
2019-02-09T13:45:50.682Z,20.97
2019-02-09T13:48:19.404Z,22.20
2019-02-09T13:50:48.296Z,26.00
2019-02-09T13:53:17.019Z,21.83
2019-02-09T13:55:45.797Z,19.93
2019-02-09T13:58:14.975Z,21.67
2019-02-09T14:00:43.710Z,21.43
2019-02-09T14:03:12.433Z,20.47
2019-02-09T14:05:41.211Z,21.30
2019-02-09T14:08:09.966Z,20.37
2019-02-09T14:10:38.701Z,22.63
2019-02-09T14:13:14.350Z,20.33
2019-02-09T14:15:39.342Z,19.50
2019-02-09T14:18:10.490Z,19.40
2019-02-09T14:20:39.467Z,21.40
2019-02-09T14:23:08.374Z,18.83
2019-02-09T14:25:37.108Z,18.67
2019-02-09T14:28:07.387Z,19.90
2019-02-09T14:30:38.752Z,20.83
2019-02-09T14:33:09.573Z,20.50
2019-02-09T14:35:39.077Z,20.93
2019-02-09T14:38:07.910Z,27.43
2019-02-09T14:40:36.633Z,28.03
2019-02-09T14:43:06.627Z,20.90
2019-02-09T14:45:37.671Z,17.10
2019-02-09T14:48:06.551Z,19.47
2019-02-09T14:50:35.759Z,17.83
2019-02-09T14:53:05.289Z,19.93
2019-02-09T14:55:38.497Z,22.23
2019-02-09T14:58:09.106Z,19.53
2019-02-09T15:00:40.851Z,19.27
2019-02-09T15:03:10.377Z,17.97
2019-02-09T15:05:39.278Z,19.97
2019-02-09T15:08:08.447Z,17.97
2019-02-09T15:10:37.274Z,18.13
2019-02-09T15:13:07.683Z,19.90
2019-02-09T15:15:48.647Z,45.83
2019-02-09T15:18:18.775Z,38.90
2019-02-09T15:20:53.023Z,41.47
2019-02-09T15:23:21.756Z,60.23
2019-02-09T15:25:50.558Z,51.20
2019-02-09T15:28:19.362Z,29.67
2019-02-09T15:30:48.098Z,20.83
2019-02-09T15:33:16.975Z,20.87
2019-02-09T15:35:45.701Z,19.50
2019-02-09T15:38:14.436Z,20.97
2019-02-09T15:40:43.220Z,21.27
2019-02-09T15:43:11.945Z,22.93
2019-02-09T15:45:40.677Z,25.80
2019-02-09T15:48:09.658Z,26.37
2019-02-09T15:50:38.385Z,25.63
2019-02-09T15:53:07.111Z,26.80
2019-02-09T15:55:35.906Z,24.23
2019-02-09T15:58:04.734Z,27.20
2019-02-09T16:00:33.669Z,32.80
2019-02-09T16:03:03.110Z,41.30
2019-02-09T16:05:31.844Z,50.60
2019-02-09T16:08:00.771Z,50.77
2019-02-09T16:10:29.595Z,51.33
2019-02-09T16:12:58.325Z,52.83
2019-02-09T16:15:31.174Z,41.40
2019-02-09T16:17:59.938Z,39.10
2019-02-09T16:20:31.579Z,37.00
2019-02-09T16:23:00.444Z,37.67
2019-02-09T16:25:29.437Z,39.23
2019-02-09T16:27:58.178Z,39.47
2019-02-09T16:30:28.055Z,54.20
2019-02-09T16:32:56.899Z,57.30
2019-02-09T16:35:27.538Z,42.97
2019-02-09T16:37:56.359Z,43.97
2019-02-09T16:40:34.149Z,50.10
2019-02-09T16:43:02.987Z,60.20
2019-02-09T16:45:34.647Z,81.23
2019-02-09T16:48:04.038Z,107.00
2019-02-09T16:50:32.767Z,114.63
2019-02-09T16:53:01.500Z,109.07
2019-02-09T16:55:30.386Z,115.07
2019-02-09T16:57:59.132Z,132.10
2019-02-09T17:00:33.463Z,136.10
2019-02-09T17:03:02.628Z,136.53
2019-02-09T17:05:31.358Z,126.57
2019-02-09T17:08:00.199Z,68.27
2019-02-09T17:10:29.242Z,82.63
2019-02-09T17:12:57.984Z,68.30
2019-02-09T17:15:28.624Z,80.93
2019-02-09T17:17:57.644Z,140.43
2019-02-09T17:20:26.380Z,231.27
2019-02-09T17:22:55.153Z,188.87
2019-02-09T17:25:25.582Z,185.97
2019-02-09T17:27:54.552Z,166.57
2019-02-09T17:30:32.206Z,138.10
2019-02-09T17:33:01.040Z,156.00
2019-02-09T17:35:29.782Z,126.93
2019-02-09T17:37:58.677Z,126.80
2019-02-09T17:40:36.214Z,133.80
2019-02-09T17:43:06.346Z,153.07
2019-02-09T17:45:49.659Z,166.83
2019-02-09T17:48:18.534Z,171.30
2019-02-09T17:50:47.272Z,191.80
2019-02-09T17:53:16.006Z,188.50
2019-02-09T17:55:45.211Z,208.10
2019-02-09T17:58:14.004Z,211.30
2019-02-09T18:00:50.137Z,215.83
2019-02-09T18:03:18.931Z,203.23
2019-02-09T18:05:47.667Z,222.13
2019-02-09T18:08:16.428Z,230.17
2019-02-09T18:10:45.322Z,226.83
2019-02-09T18:13:14.055Z,233.27
2019-02-09T18:15:42.816Z,232.70
2019-02-09T18:18:11.686Z,185.20
2019-02-09T18:20:40.427Z,165.77
2019-02-09T18:23:09.168Z,158.27
2019-02-09T18:25:38.385Z,136.13
2019-02-09T18:28:07.231Z,115.07
2019-02-09T18:30:36.667Z,96.87
2019-02-09T18:33:05.849Z,89.43
2019-02-09T18:35:34.579Z,84.57
2019-02-09T18:38:03.311Z,81.67
2019-02-09T18:40:32.668Z,81.10
2019-02-09T18:43:01.401Z,66.87
2019-02-09T18:45:31.760Z,64.67
2019-02-09T18:48:00.737Z,61.47
2019-02-09T18:50:30.874Z,59.47
2019-02-09T18:53:02.486Z,56.63
2019-02-09T18:55:32.145Z,52.93
2019-02-09T18:58:00.982Z,52.27
2019-02-09T19:00:32.628Z,51.43
2019-02-09T19:03:02.270Z,50.10
2019-02-09T19:05:31.016Z,49.67
2019-02-09T19:07:59.875Z,46.67
2019-02-09T19:10:29.358Z,45.87
2019-02-09T19:12:58.096Z,45.83
2019-02-09T19:15:28.708Z,55.73
2019-02-09T19:17:59.179Z,49.03
2019-02-09T19:20:46.392Z,40.77
2019-02-09T19:23:15.302Z,39.40
2019-02-09T19:25:44.126Z,39.43
2019-02-09T19:28:12.857Z,34.23
2019-02-09T19:30:42.105Z,34.60
2019-02-09T19:33:10.902Z,38.73
2019-02-09T19:35:39.633Z,36.03
2019-02-09T19:38:08.742Z,38.40
2019-02-09T19:40:37.476Z,41.47
2019-02-09T19:43:06.609Z,41.87
2019-02-09T19:45:37.414Z,42.40
2019-02-09T19:48:07.715Z,41.20
2019-02-09T19:50:36.464Z,39.63
2019-02-09T19:53:06.026Z,39.20
2019-02-09T19:55:37.844Z,39.20
2019-02-09T19:58:07.075Z,38.43
2019-02-09T20:00:38.919Z,47.53
2019-02-09T20:03:08.252Z,48.80
2019-02-09T20:05:36.981Z,41.33
2019-02-09T20:08:07.466Z,39.90
2019-02-09T20:10:41.475Z,41.13
2019-02-09T20:13:12.050Z,40.37
2019-02-09T20:15:40.981Z,37.43
2019-02-09T20:18:10.701Z,36.87
2019-02-09T20:20:46.829Z,45.47
2019-02-09T20:23:10.226Z,45.77
2019-02-09T20:25:38.982Z,44.47
2019-02-09T20:28:08.041Z,33.20
2019-02-09T20:30:39.073Z,30.73
2019-02-09T20:33:08.106Z,30.10
2019-02-09T20:35:39.262Z,32.87
2019-02-09T20:38:09.511Z,32.20
2019-02-09T20:40:47.789Z,38.47
2019-02-09T20:43:19.091Z,39.07
2019-02-09T20:45:48.018Z,44.60
2019-02-09T20:48:17.235Z,66.93
2019-02-09T20:50:46.139Z,55.37
2019-02-09T20:53:14.706Z,44.93
2019-02-09T20:55:43.607Z,47.63
2019-02-09T20:58:13.276Z,62.23
2019-02-09T21:00:42.071Z,52.83
2019-02-09T21:03:10.983Z,50.57
2019-02-09T21:05:39.742Z,47.87
2019-02-09T21:08:08.958Z,52.77
2019-02-09T21:10:40.466Z,48.47
2019-02-09T21:13:09.250Z,46.30
2019-02-09T21:15:38.194Z,45.30
2019-02-09T21:18:07.886Z,46.43
2019-02-09T21:20:36.727Z,47.03
2019-02-09T21:23:06.077Z,58.43
2019-02-09T21:25:43.478Z,68.93
2019-02-09T21:28:12.233Z,82.17
2019-02-09T21:30:43.737Z,70.83
2019-02-09T21:33:12.760Z,151.63
2019-02-09T21:35:44.435Z,53.60
2019-02-09T21:38:12.094Z,51.03
2019-02-09T21:40:40.994Z,49.33
2019-02-09T21:43:09.892Z,61.63
2019-02-09T21:45:45.024Z,66.03
2019-02-09T21:48:09.639Z,64.53
2019-02-09T21:50:39.198Z,66.47
2019-02-09T21:53:09.264Z,63.53
2019-02-09T21:55:40.880Z,65.77
2019-02-09T21:58:09.741Z,68.87
2019-02-09T22:00:49.090Z,62.73
2019-02-09T22:03:20.889Z,60.57
2019-02-09T22:05:51.997Z,67.93
2019-02-09T22:08:20.539Z,50.80
2019-02-09T22:10:50.802Z,46.80
2019-02-09T22:13:19.538Z,47.83
2019-02-09T22:15:48.442Z,76.83
2019-02-09T22:18:17.174Z,60.17
2019-02-09T22:20:52.941Z,50.33
2019-02-09T22:23:26.781Z,46.63
2019-02-09T22:25:52.962Z,46.53
2019-02-09T22:28:21.708Z,49.50
2019-02-09T22:30:53.040Z,51.37
2019-02-09T22:33:24.591Z,50.97
2019-02-09T22:35:59.884Z,49.60
2019-02-09T22:38:23.381Z,48.33
2019-02-09T22:40:52.152Z,45.13
2019-02-09T22:43:20.903Z,48.17
2019-02-09T22:45:49.724Z,48.63
2019-02-09T22:48:21.211Z,49.47
2019-02-09T22:50:52.731Z,55.80
2019-02-09T22:53:21.514Z,52.03
2019-02-09T22:55:50.479Z,50.43
2019-02-09T22:58:19.447Z,60.13
2019-02-09T23:00:58.969Z,46.63
2019-02-09T23:03:48.633Z,50.27
2019-02-09T23:06:38.614Z,50.97
2019-02-09T23:09:09.968Z,52.50
2019-02-09T23:11:41.477Z,53.23
2019-02-09T23:14:10.682Z,56.47
2019-02-09T23:16:39.440Z,55.70
2019-02-09T23:19:08.273Z,48.17
2019-02-09T23:21:37.132Z,47.83
2019-02-09T23:24:05.982Z,50.77
2019-02-09T23:26:34.728Z,51.43
2019-02-09T23:29:03.512Z,49.33
2019-02-09T23:31:32.265Z,52.50
2019-02-09T23:34:01.022Z,55.90
2019-02-09T23:36:29.819Z,52.50
2019-02-09T23:38:58.570Z,51.77
2019-02-09T23:41:29.290Z,51.90
2019-02-09T23:43:58.166Z,54.30
2019-02-09T23:46:26.897Z,51.73
2019-02-09T23:48:55.645Z,52.00
2019-02-09T23:51:24.410Z,62.93
2019-02-09T23:53:53.154Z,61.97
2019-02-09T23:56:21.897Z,59.67
2019-02-09T23:58:50.678Z,57.57
